createdAt,value
2023-02-07T00:03:05.896Z,11.77
2023-02-07T00:07:08.941Z,13.03
2023-02-07T00:11:16.377Z,13.23
2023-02-07T00:15:20.986Z,12.17
2023-02-07T00:19:24.274Z,11.23
2023-02-07T00:23:27.381Z,11.43
2023-02-07T00:27:30.288Z,12.07
2023-02-07T00:31:36.536Z,12.53
2023-02-07T00:35:39.814Z,12.17
2023-02-07T00:39:43.079Z,11.37
2023-02-07T00:43:47.792Z,11.30
2023-02-07T00:47:52.235Z,12.50
2023-02-07T00:51:55.178Z,11.60
2023-02-07T00:55:58.448Z,12.20
2023-02-07T01:00:01.329Z,11.87
2023-02-07T01:04:06.313Z,11.57
2023-02-07T01:08:09.672Z,13.27
2023-02-07T01:12:12.945Z,13.40
2023-02-07T01:16:20.617Z,12.57
2023-02-07T01:20:24.959Z,12.37
2023-02-07T01:24:27.984Z,13.13
2023-02-07T01:28:30.936Z,13.20
2023-02-07T01:32:34.829Z,13.40
2023-02-07T01:36:39.972Z,13.13
2023-02-07T01:40:43.186Z,13.83
2023-02-07T01:45:13.861Z,13.10
2023-02-07T01:49:19.677Z,13.00
2023-02-07T01:53:26.684Z,12.10
2023-02-07T01:57:30.076Z,14.10
2023-02-07T02:01:33.390Z,12.27
2023-02-07T02:05:38.341Z,13.77
2023-02-07T02:09:42.913Z,13.73
2023-02-07T02:13:55.639Z,13.63
2023-02-07T02:18:22.180Z,13.87
2023-02-07T02:22:52.395Z,14.40
2023-02-07T02:27:06.147Z,13.77
2023-02-07T02:31:34.716Z,13.97
2023-02-07T02:35:47.996Z,13.23
2023-02-07T02:39:57.213Z,14.20
2023-02-07T02:44:05.107Z,12.87
2023-02-07T02:48:11.367Z,13.70
2023-02-07T02:52:15.878Z,14.10
2023-02-07T02:56:35.980Z,13.23
2023-02-07T03:00:50.386Z,13.77
2023-02-07T03:05:08.412Z,13.20
2023-02-07T03:09:21.793Z,14.00
2023-02-07T03:13:32.460Z,13.50
2023-02-07T03:17:44.614Z,12.80
2023-02-07T03:21:55.203Z,14.43
2023-02-07T03:26:05.492Z,13.57
2023-02-07T03:30:14.312Z,13.33
2023-02-07T03:34:22.326Z,13.60
2023-02-07T03:38:25.963Z,14.20
2023-02-07T03:42:34.067Z,13.10
2023-02-07T03:46:37.903Z,14.23
2023-02-07T03:50:40.945Z,13.77
2023-02-07T03:54:43.843Z,13.77
2023-02-07T03:58:50.124Z,13.37
2023-02-07T04:02:53.026Z,12.67
2023-02-07T04:06:56.121Z,14.47
2023-02-07T04:10:59.962Z,14.10
2023-02-07T04:15:06.370Z,13.13
2023-02-07T04:19:09.663Z,13.80
2023-02-07T04:23:12.636Z,13.20
2023-02-07T04:27:15.795Z,12.93
2023-02-07T04:31:20.259Z,14.40
2023-02-07T04:35:25.737Z,13.57
2023-02-07T04:39:29.108Z,12.57
2023-02-07T04:43:32.317Z,12.10
2023-02-07T04:47:39.097Z,13.17
2023-02-07T04:51:42.123Z,13.77
2023-02-07T04:55:50.182Z,13.57
2023-02-07T04:59:55.592Z,14.23
2023-02-07T05:03:59.972Z,13.93
2023-02-07T05:08:02.848Z,12.87
2023-02-07T05:12:06.109Z,13.03
2023-02-07T05:16:09.114Z,14.07
2023-02-07T05:20:16.573Z,13.63
2023-02-07T05:24:19.615Z,14.00
2023-02-07T05:28:22.704Z,12.23
2023-02-07T05:32:43.302Z,13.90
2023-02-07T05:36:49.420Z,13.73
2023-02-07T05:41:03.782Z,13.00
2023-02-07T05:45:10.173Z,13.50
2023-02-07T05:49:17.551Z,13.77
2023-02-07T05:53:24.064Z,13.07
2023-02-07T05:57:27.040Z,13.67
2023-02-07T06:01:30.098Z,14.27
2023-02-07T06:05:33.878Z,12.93
2023-02-07T06:09:38.312Z,13.73
2023-02-07T06:13:41.471Z,12.60
2023-02-07T06:17:44.794Z,13.73
2023-02-07T06:21:47.994Z,13.97
2023-02-07T06:25:52.649Z,13.03
2023-02-07T06:29:55.646Z,12.90
2023-02-07T06:34:05.519Z,12.93
2023-02-07T06:38:10.395Z,13.43
2023-02-07T06:42:16.545Z,13.17
2023-02-07T06:46:21.479Z,13.63
2023-02-07T06:50:24.569Z,13.63
2023-02-07T06:54:27.487Z,14.00
2023-02-07T06:58:31.816Z,12.70
2023-02-07T07:02:34.771Z,12.93
2023-02-07T07:06:39.894Z,13.93
2023-02-07T07:10:42.844Z,13.87
2023-02-07T07:14:49.715Z,13.87
2023-02-07T07:18:56.299Z,14.13
2023-02-07T07:22:59.438Z,13.13
2023-02-07T07:27:04.620Z,13.27
2023-02-07T07:31:13.240Z,13.00
2023-02-07T07:35:19.575Z,13.93
2023-02-07T07:39:24.742Z,13.13
2023-02-07T07:43:28.393Z,13.87
2023-02-07T07:47:32.844Z,13.33
2023-02-07T07:51:37.941Z,12.53
2023-02-07T07:55:46.403Z,13.60
2023-02-07T07:59:49.534Z,13.60
2023-02-07T08:03:54.023Z,13.17
2023-02-07T08:07:57.298Z,13.40
2023-02-07T08:12:00.401Z,12.97
2023-02-07T08:16:04.263Z,14.40
2023-02-07T08:20:12.022Z,13.43
2023-02-07T08:24:15.075Z,13.33
2023-02-07T08:28:18.885Z,13.30
2023-02-07T08:32:21.851Z,11.97
2023-02-07T08:36:26.238Z,12.00
2023-02-07T08:40:30.341Z,12.43
2023-02-07T08:44:33.372Z,11.50
2023-02-07T08:48:36.329Z,11.67
2023-02-07T08:52:40.805Z,12.47
2023-02-07T08:56:43.700Z,11.53
2023-02-07T09:00:46.824Z,12.03
2023-02-07T09:04:49.819Z,11.63
2023-02-07T09:08:54.312Z,11.27
2023-02-07T09:12:57.470Z,11.07
2023-02-07T09:17:00.714Z,11.57
2023-02-07T09:21:03.905Z,10.73
2023-02-07T09:25:11.047Z,10.73
2023-02-07T09:29:17.629Z,11.67
2023-02-07T09:33:23.104Z,11.27
2023-02-07T09:37:26.084Z,10.53
2023-02-07T09:41:44.690Z,10.40
2023-02-07T09:46:02.748Z,9.70
2023-02-07T09:50:16.489Z,8.47
2023-02-07T09:54:25.279Z,10.67
2023-02-07T09:58:39.984Z,11.23
2023-02-07T10:02:49.932Z,10.83
2023-02-07T10:06:54.991Z,11.23
2023-02-07T10:11:14.469Z,11.00
2023-02-07T10:15:36.329Z,10.47
2023-02-07T10:19:51.980Z,12.43
2023-02-07T10:24:14.601Z,11.10
2023-02-07T10:28:42.813Z,12.03
2023-02-07T10:32:52.778Z,11.40
2023-02-07T10:37:02.026Z,11.33
2023-02-07T10:41:11.922Z,11.33
2023-02-07T10:45:19.797Z,10.63
2023-02-07T10:49:28.783Z,10.93
2023-02-07T10:53:54.547Z,10.33
2023-02-07T10:58:08.543Z,10.40
2023-02-07T11:02:48.951Z,11.97
2023-02-07T11:07:01.256Z,10.17
2023-02-07T11:11:28.211Z,10.27
2023-02-07T11:15:40.069Z,11.67
2023-02-07T11:19:46.513Z,10.33
2023-02-07T11:23:52.087Z,10.73
2023-02-07T11:27:55.132Z,10.37
2023-02-07T11:32:01.293Z,10.40
2023-02-07T11:36:13.703Z,9.70
2023-02-07T11:40:26.849Z,9.20
2023-02-07T11:44:34.039Z,9.57
2023-02-07T11:48:42.179Z,8.03
2023-02-07T11:52:52.160Z,9.33
2023-02-07T11:57:04.134Z,9.23
2023-02-07T12:01:08.998Z,9.50
2023-02-07T12:05:20.717Z,8.73
2023-02-07T12:09:35.772Z,8.93
2023-02-07T12:13:45.004Z,8.60
2023-02-07T12:17:58.262Z,9.33
2023-02-07T12:22:11.147Z,9.63
2023-02-07T12:26:24.712Z,10.00
2023-02-07T12:30:34.602Z,8.27
2023-02-07T12:34:42.893Z,9.10
2023-02-07T12:38:53.419Z,9.50
2023-02-07T12:43:02.528Z,9.33
2023-02-07T12:47:17.254Z,9.80
2023-02-07T12:51:34.468Z,10.83
2023-02-07T12:55:48.386Z,9.83
2023-02-07T13:00:04.930Z,9.27
2023-02-07T13:04:45.439Z,9.47
2023-02-07T13:08:56.656Z,8.67
2023-02-07T13:13:06.285Z,8.53
2023-02-07T13:17:37.104Z,7.87
2023-02-07T13:21:48.774Z,7.80
2023-02-07T13:25:57.493Z,8.87
2023-02-07T13:30:02.273Z,7.83
2023-02-07T13:34:05.680Z,8.13
2023-02-07T13:38:21.783Z,8.30
2023-02-07T13:42:36.166Z,8.20
2023-02-07T13:47:06.582Z,8.93
2023-02-07T13:51:21.424Z,8.97
2023-02-07T13:55:33.720Z,8.60
2023-02-07T13:59:40.454Z,8.00
2023-02-07T14:04:01.711Z,8.53
2023-02-07T14:08:07.470Z,8.70
2023-02-07T14:12:23.199Z,7.30
2023-02-07T14:16:46.487Z,7.93
2023-02-07T14:20:51.016Z,7.83
2023-02-07T14:25:20.721Z,7.43
2023-02-07T14:29:58.362Z,7.00
2023-02-07T14:34:14.085Z,7.77
2023-02-07T14:38:32.906Z,7.27
2023-02-07T14:42:37.373Z,8.13
2023-02-07T14:46:47.912Z,7.00
2023-02-07T14:50:53.819Z,7.77
2023-02-07T14:55:06.013Z,7.17
2023-02-07T14:59:12.992Z,7.90
2023-02-07T15:03:22.473Z,7.47
2023-02-07T15:07:25.844Z,7.93
2023-02-07T15:11:32.079Z,7.97
2023-02-07T15:15:47.483Z,7.60
2023-02-07T15:19:56.615Z,7.97
2023-02-07T15:24:06.201Z,7.70
2023-02-07T15:28:27.374Z,8.23
2023-02-07T15:32:34.102Z,8.47
2023-02-07T15:36:45.942Z,8.80
2023-02-07T15:40:49.328Z,9.37
2023-02-07T15:44:56.606Z,8.67
2023-02-07T15:48:59.663Z,9.20
2023-02-07T15:53:11.237Z,8.83
2023-02-07T15:57:31.999Z,9.43
2023-02-07T16:01:35.169Z,8.87
2023-02-07T16:05:41.834Z,8.53
2023-02-07T16:09:48.418Z,8.87
2023-02-07T16:13:54.756Z,8.77
2023-02-07T16:18:00.177Z,8.23
2023-02-07T16:22:07.340Z,9.17
2023-02-07T16:26:12.126Z,8.07
2023-02-07T16:30:18.359Z,8.27
2023-02-07T16:34:22.836Z,8.83
2023-02-07T16:38:28.190Z,8.53
2023-02-07T16:42:32.687Z,8.17
2023-02-07T16:46:35.694Z,8.20
2023-02-07T16:50:39.961Z,8.50
2023-02-07T16:54:50.676Z,8.43
2023-02-07T16:58:55.185Z,9.03
2023-02-07T17:02:58.988Z,7.87
2023-02-07T17:07:10.769Z,7.73
2023-02-07T17:11:15.723Z,8.97
2023-02-07T17:15:20.190Z,8.30
2023-02-07T17:19:31.817Z,8.67
2023-02-07T17:23:34.921Z,9.43
2023-02-07T17:27:37.870Z,9.13
2023-02-07T17:31:43.274Z,9.50
2023-02-07T17:35:46.282Z,9.17
2023-02-07T17:39:51.778Z,10.73
2023-02-07T17:43:54.904Z,9.30
2023-02-07T17:47:59.832Z,9.43
2023-02-07T17:52:02.809Z,9.37
2023-02-07T17:56:07.351Z,9.17
2023-02-07T18:00:18.381Z,10.53
2023-02-07T18:04:23.037Z,9.23
2023-02-07T18:08:26.118Z,9.37
2023-02-07T18:12:29.383Z,9.47
2023-02-07T18:16:32.387Z,9.43
2023-02-07T18:20:36.897Z,10.03
2023-02-07T18:24:41.577Z,9.50
2023-02-07T18:28:46.108Z,10.07
2023-02-07T18:32:49.931Z,10.23
2023-02-07T18:36:54.448Z,9.00
2023-02-07T18:40:57.661Z,9.07
2023-02-07T18:45:00.749Z,10.00
2023-02-07T18:49:04.114Z,10.07
2023-02-07T18:53:08.568Z,9.33
2023-02-07T18:57:12.397Z,10.00
2023-02-07T19:01:19.183Z,10.60
2023-02-07T19:05:33.268Z,10.00
2023-02-07T19:09:40.105Z,9.47
2023-02-07T19:13:43.552Z,10.00
2023-02-07T19:17:46.638Z,8.20
2023-02-07T19:21:51.966Z,9.30
2023-02-07T19:26:00.519Z,8.43
2023-02-07T19:30:06.751Z,8.90
2023-02-07T19:34:10.410Z,8.50
2023-02-07T19:38:13.395Z,9.20
2023-02-07T19:42:24.716Z,9.40
2023-02-07T19:46:28.191Z,9.07
2023-02-07T19:50:31.501Z,8.63
2023-02-07T19:54:34.539Z,9.17
2023-02-07T19:58:41.179Z,7.90
2023-02-07T20:02:44.168Z,8.43
2023-02-07T20:06:47.250Z,7.97
2023-02-07T20:10:54.732Z,8.50
2023-02-07T20:14:59.439Z,8.53
2023-02-07T20:19:06.818Z,7.37
2023-02-07T20:23:10.570Z,8.37
2023-02-07T20:27:27.439Z,8.20
2023-02-07T20:31:32.292Z,6.97
2023-02-07T20:35:37.959Z,8.10
2023-02-07T20:39:41.048Z,8.00
2023-02-07T20:43:44.658Z,7.53
2023-02-07T20:47:51.288Z,7.73
2023-02-07T20:51:54.671Z,8.03
2023-02-07T20:56:06.478Z,8.60
2023-02-07T21:00:19.893Z,8.07
2023-02-07T21:04:24.446Z,7.63
2023-02-07T21:08:30.469Z,8.70
2023-02-07T21:12:36.843Z,8.07
2023-02-07T21:16:40.701Z,7.70
2023-02-07T21:20:45.187Z,7.53
2023-02-07T21:24:51.637Z,8.23
2023-02-07T21:29:01.333Z,8.53
2023-02-07T21:33:09.349Z,7.43
2023-02-07T21:37:13.912Z,7.97
2023-02-07T21:41:19.847Z,7.30
2023-02-07T21:45:23.241Z,7.40
2023-02-07T21:49:28.465Z,7.90
2023-02-07T21:53:33.259Z,8.10
2023-02-07T21:57:36.247Z,8.70
2023-02-07T22:01:42.486Z,7.73
2023-02-07T22:05:45.483Z,7.97
2023-02-07T22:09:52.424Z,8.30
2023-02-07T22:13:55.958Z,7.93
2023-02-07T22:17:59.219Z,7.30
2023-02-07T22:22:02.167Z,7.37
2023-02-07T22:26:07.429Z,8.10
2023-02-07T22:30:13.871Z,7.20
2023-02-07T22:34:20.169Z,8.00
2023-02-07T22:38:28.061Z,8.47
2023-02-07T22:42:35.796Z,7.30
2023-02-07T22:46:39.209Z,8.73
2023-02-07T22:50:42.414Z,7.83
2023-02-07T22:54:47.565Z,8.70
2023-02-07T22:58:52.100Z,8.07
2023-02-07T23:02:55.052Z,7.57
2023-02-07T23:06:58.294Z,8.17
2023-02-07T23:11:01.280Z,7.63
2023-02-07T23:15:06.174Z,6.93
2023-02-07T23:19:15.004Z,8.00
2023-02-07T23:23:18.099Z,8.70
2023-02-07T23:27:21.220Z,7.97
2023-02-07T23:31:28.906Z,7.80
2023-02-07T23:35:35.040Z,8.40
2023-02-07T23:39:38.264Z,8.07
2023-02-07T23:43:44.023Z,8.00
2023-02-07T23:47:48.491Z,8.67
2023-02-07T23:51:51.506Z,8.33
2023-02-07T23:55:56.472Z,8.20
